createdAt,value
2018-04-29T00:00:01.568Z,14.30
2018-04-29T00:04:04.099Z,14.30
2018-04-29T00:08:07.392Z,14.30
2018-04-29T00:12:09.929Z,14.20
2018-04-29T00:16:12.444Z,14.20
2018-04-29T00:20:14.970Z,14.20
2018-04-29T00:24:17.644Z,14.20
2018-04-29T00:28:20.189Z,14.20
2018-04-29T00:32:22.716Z,14.10
2018-04-29T00:36:26.011Z,14.10
2018-04-29T00:40:29.291Z,14.10
2018-04-29T00:44:31.834Z,14.00
2018-04-29T00:48:34.380Z,14.00
2018-04-29T00:52:37.674Z,14.00
2018-04-29T00:56:40.203Z,13.90
2018-04-29T01:00:42.716Z,14.00
2018-04-29T01:04:45.253Z,13.90
2018-04-29T01:08:47.799Z,13.90
2018-04-29T01:12:50.330Z,13.90
2018-04-29T01:16:52.868Z,13.90
2018-04-29T01:20:55.388Z,13.80
2018-04-29T01:24:57.915Z,13.80
2018-04-29T01:29:00.443Z,13.80
2018-04-29T01:33:03.744Z,13.80
2018-04-29T01:37:07.048Z,13.70
2018-04-29T01:41:10.332Z,13.70
2018-04-29T01:45:12.862Z,13.60
2018-04-29T01:49:15.407Z,13.60
2018-04-29T01:53:17.940Z,13.60
2018-04-29T01:57:20.491Z,13.50
2018-04-29T02:01:23.777Z,13.40
2018-04-29T02:05:26.310Z,13.40
2018-04-29T02:09:28.839Z,13.30
2018-04-29T02:13:31.384Z,13.30
2018-04-29T02:17:33.928Z,13.30
2018-04-29T02:21:37.517Z,13.10
2018-04-29T02:25:40.052Z,13.10
2018-04-29T02:29:42.584Z,13.10
2018-04-29T02:33:45.122Z,13.00
2018-04-29T02:37:47.669Z,12.90
2018-04-29T02:41:50.188Z,12.80
2018-04-29T02:45:52.732Z,12.80
2018-04-29T02:49:55.268Z,12.70
2018-04-29T02:53:57.809Z,12.60
2018-04-29T02:58:00.488Z,12.60
2018-04-29T03:02:03.003Z,12.50
2018-04-29T03:06:06.303Z,12.40
2018-04-29T03:10:09.607Z,12.30
2018-04-29T03:14:12.157Z,12.30
2018-04-29T03:18:14.700Z,12.30
2018-04-29T03:22:17.212Z,12.20
2018-04-29T03:26:19.752Z,12.20
2018-04-29T03:30:22.284Z,12.10
2018-04-29T03:34:24.844Z,12.00
2018-04-29T03:38:27.383Z,12.00
2018-04-29T03:42:29.898Z,11.90
2018-04-29T03:46:32.440Z,11.80
2018-04-29T03:50:34.976Z,11.80
2018-04-29T03:54:37.524Z,11.70
2018-04-29T03:58:51.860Z,11.70
2018-04-29T04:03:06.165Z,11.60
2018-04-29T04:07:08.686Z,11.60
2018-04-29T04:11:11.235Z,11.50
2018-04-29T04:15:13.770Z,11.40
2018-04-29T04:19:16.303Z,11.40
2018-04-29T04:23:18.816Z,11.30
2018-04-29T04:27:21.343Z,11.20
2018-04-29T04:31:23.920Z,11.10
2018-04-29T04:35:26.453Z,11.10
2018-04-29T04:39:28.992Z,11.00
2018-04-29T04:43:31.530Z,10.90
2018-04-29T04:47:34.048Z,10.90
2018-04-29T04:51:36.592Z,10.90
2018-04-29T04:55:39.140Z,10.80
2018-04-29T04:59:41.704Z,10.80
2018-04-29T05:03:44.230Z,10.80
2018-04-29T05:07:47.514Z,10.80
2018-04-29T05:11:50.049Z,10.70
2018-04-29T05:15:52.584Z,10.80
2018-04-29T05:19:55.126Z,10.80
2018-04-29T05:23:57.659Z,10.90
2018-04-29T05:28:00.941Z,11.00
2018-04-29T05:32:03.483Z,10.90
2018-04-29T05:36:06.018Z,11.00
2018-04-29T05:40:08.555Z,11.10
2018-04-29T05:44:11.102Z,11.20
2018-04-29T05:48:14.399Z,11.40
2018-04-29T05:52:16.943Z,11.40
2018-04-29T05:56:19.484Z,11.50
2018-04-29T06:00:22.809Z,11.70
2018-04-29T06:04:29.035Z,11.70
2018-04-29T06:08:31.543Z,11.80
2018-04-29T06:12:34.848Z,12.00
2018-04-29T06:16:38.147Z,12.10
2018-04-29T06:20:41.453Z,12.20
2018-04-29T06:24:45.166Z,12.10
2018-04-29T06:28:48.443Z,12.40
2018-04-29T06:32:50.975Z,12.30
2018-04-29T06:36:53.516Z,12.50
2018-04-29T06:40:56.052Z,12.70
2018-04-29T06:44:58.583Z,12.70
2018-04-29T06:49:01.128Z,12.90
2018-04-29T06:53:03.657Z,13.00
2018-04-29T06:57:06.207Z,13.10
2018-04-29T07:01:08.744Z,13.20
2018-04-29T07:05:11.295Z,13.40
2018-04-29T07:09:13.832Z,13.50
2018-04-29T07:13:16.348Z,13.70
2018-04-29T07:17:18.884Z,13.90
2018-04-29T07:21:22.189Z,14.20
2018-04-29T07:25:24.747Z,14.10
2018-04-29T07:29:27.282Z,14.40
2018-04-29T07:33:30.564Z,14.70
2018-04-29T07:37:33.863Z,15.00
2018-04-29T07:41:37.240Z,15.10
2018-04-29T07:45:40.698Z,15.20
2018-04-29T07:49:43.247Z,15.20
2018-04-29T07:53:45.770Z,15.30
2018-04-29T07:57:48.299Z,15.50
2018-04-29T08:01:50.827Z,15.60
2018-04-29T08:05:53.371Z,15.80
2018-04-29T08:09:55.904Z,16.00
2018-04-29T08:13:58.419Z,16.10
2018-04-29T08:18:00.956Z,16.30
2018-04-29T08:22:04.251Z,16.80
2018-04-29T08:26:07.569Z,17.00
2018-04-29T08:30:10.206Z,16.90
2018-04-29T08:34:12.640Z,17.20
2018-04-29T08:38:15.169Z,17.50
2018-04-29T08:42:17.711Z,17.80
2018-04-29T08:46:20.251Z,18.00
2018-04-29T08:54:31.739Z,18.50
2018-04-29T08:58:34.271Z,18.80
2018-04-29T09:02:36.812Z,18.90
2018-04-29T09:06:39.359Z,19.10
2018-04-29T09:10:42.663Z,19.40
2018-04-29T09:14:45.942Z,19.40
2018-04-29T09:18:48.470Z,19.40
2018-04-29T09:22:51.010Z,19.50
2018-04-29T09:26:53.544Z,19.60
2018-04-29T09:30:56.078Z,19.70
2018-04-29T09:34:58.609Z,19.80
2018-04-29T09:39:01.124Z,19.90
2018-04-29T09:43:03.658Z,19.90
2018-04-29T09:47:06.946Z,20.00
2018-04-29T09:51:10.240Z,20.00
2018-04-29T09:55:12.809Z,20.00
2018-04-29T09:59:15.312Z,20.10
2018-04-29T10:03:20.437Z,20.10
2018-04-29T10:07:22.991Z,20.30
2018-04-29T10:11:25.532Z,20.40
2018-04-29T10:15:28.859Z,21.00
2018-04-29T10:19:31.358Z,20.90
2018-04-29T10:23:33.883Z,21.10
2018-04-29T10:27:36.416Z,21.10
2018-04-29T10:31:39.767Z,21.20
2018-04-29T10:35:42.311Z,21.30
2018-04-29T10:39:44.833Z,21.40
2018-04-29T10:43:47.359Z,21.50
2018-04-29T10:47:50.653Z,21.80
2018-04-29T10:51:54.008Z,22.00
2018-04-29T10:55:56.534Z,21.90
2018-04-29T10:59:59.827Z,22.40
2018-04-29T11:04:02.362Z,22.30
2018-04-29T11:08:04.896Z,22.40
2018-04-29T11:12:07.438Z,22.50
2018-04-29T11:16:09.973Z,22.60
2018-04-29T11:20:13.258Z,22.70
2018-04-29T11:24:15.779Z,22.70
2018-04-29T11:28:19.077Z,22.90
2018-04-29T11:32:22.388Z,22.90
2018-04-29T11:36:24.929Z,22.90
2018-04-29T11:40:27.491Z,23.00
2018-04-29T11:44:29.995Z,23.10
2018-04-29T11:48:32.514Z,23.30
2018-04-29T11:52:35.811Z,23.40
2018-04-29T11:56:39.116Z,23.50
2018-04-29T12:00:42.408Z,23.60
2018-04-29T12:04:44.939Z,23.50
2018-04-29T12:08:47.483Z,23.60
2018-04-29T12:12:50.007Z,23.60
2018-04-29T12:16:52.544Z,23.60
2018-04-29T12:20:55.064Z,23.60
2018-04-29T12:24:57.600Z,23.50
2018-04-29T12:29:00.152Z,23.50
2018-04-29T12:33:02.688Z,23.40
2018-04-29T12:37:05.211Z,23.40
2018-04-29T12:41:07.718Z,23.30
2018-04-29T12:45:10.251Z,23.40
2018-04-29T12:49:12.784Z,23.50
2018-04-29T12:53:15.319Z,23.60
2018-04-29T12:57:18.620Z,23.80
2018-04-29T13:01:21.904Z,23.90
2018-04-29T13:05:24.436Z,23.90
2018-04-29T13:09:26.982Z,24.00
2018-04-29T13:13:29.523Z,24.10
2018-04-29T13:17:32.055Z,24.20
2018-04-29T13:21:34.578Z,24.30
2018-04-29T13:25:37.142Z,24.30
2018-04-29T13:29:40.472Z,24.40
2018-04-29T13:33:42.998Z,24.30
2018-04-29T13:37:45.531Z,24.50
2018-04-29T13:41:48.070Z,24.70
2018-04-29T13:45:50.584Z,24.80
2018-04-29T13:49:53.880Z,24.90
2018-04-29T13:53:57.192Z,25.00
2018-04-29T13:58:00.487Z,24.90
2018-04-29T14:02:03.774Z,24.80
2018-04-29T14:06:06.290Z,24.80
2018-04-29T14:10:08.821Z,24.70
2018-04-29T14:14:11.367Z,24.60
2018-04-29T14:18:13.902Z,24.40
2018-04-29T14:22:16.495Z,24.30
2018-04-29T14:26:18.976Z,24.20
2018-04-29T14:30:21.543Z,24.10
2018-04-29T14:34:24.090Z,24.00
2018-04-29T14:38:26.629Z,23.80
2018-04-29T14:42:29.186Z,23.70
2018-04-29T14:46:31.710Z,23.60
2018-04-29T14:50:34.239Z,23.50
2018-04-29T14:54:36.767Z,23.40
2018-04-29T14:58:39.291Z,23.20
2018-04-29T15:02:41.830Z,23.00
2018-04-29T15:06:44.338Z,22.90
2018-04-29T15:10:47.638Z,22.70
2018-04-29T15:14:50.947Z,22.70
2018-04-29T15:19:00.156Z,22.80
2018-04-29T15:23:02.694Z,22.70
2018-04-29T15:27:05.218Z,22.90
2018-04-29T15:31:07.742Z,23.00
2018-04-29T15:35:11.035Z,23.30
2018-04-29T15:39:13.575Z,23.20
2018-04-29T15:43:16.100Z,23.30
2018-04-29T15:47:18.638Z,23.30
2018-04-29T15:51:21.146Z,23.20
2018-04-29T15:55:23.681Z,23.00
2018-04-29T15:59:26.966Z,22.80
2018-04-29T16:03:30.439Z,22.70
2018-04-29T16:07:33.671Z,22.60
2018-04-29T16:11:36.953Z,22.50
2018-04-29T16:15:39.489Z,22.50
2018-04-29T16:19:42.031Z,22.50
2018-04-29T16:23:45.766Z,22.50
2018-04-29T16:27:49.063Z,22.60
2018-04-29T16:31:52.927Z,22.80
2018-04-29T16:35:55.456Z,22.80
2018-04-29T16:39:57.987Z,22.90
2018-04-29T16:44:01.293Z,23.10
2018-04-29T16:48:03.822Z,23.00
2018-04-29T16:52:06.326Z,23.10
2018-04-29T16:56:08.867Z,23.00
2018-04-29T17:00:11.425Z,22.90
2018-04-29T17:04:13.977Z,22.80
2018-04-29T17:08:17.295Z,22.50
2018-04-29T17:12:19.823Z,22.40
2018-04-29T17:16:22.383Z,22.40
2018-04-29T17:20:24.921Z,22.30
2018-04-29T17:24:27.482Z,22.20
2018-04-29T17:28:30.880Z,22.00
2018-04-29T17:32:33.501Z,22.00
2018-04-29T17:36:36.803Z,21.70
2018-04-29T17:40:39.339Z,21.70
2018-04-29T17:44:41.916Z,21.60
2018-04-29T17:48:44.447Z,21.50
2018-04-29T17:52:46.960Z,21.50
2018-04-29T17:56:50.255Z,21.20
2018-04-29T18:00:53.556Z,21.10
2018-04-29T18:04:56.847Z,21.10
2018-04-29T18:08:59.374Z,21.00
2018-04-29T18:13:01.879Z,20.90
2018-04-29T18:17:04.412Z,20.80
2018-04-29T18:21:08.453Z,20.60
2018-04-29T18:25:11.052Z,20.50
2018-04-29T18:29:13.636Z,20.50
2018-04-29T18:33:19.312Z,20.40
2018-04-29T18:41:47.871Z,20.20
2018-04-29T18:45:50.403Z,20.10
2018-04-29T18:49:52.935Z,20.10
2018-04-29T18:53:55.466Z,20.00
2018-04-29T18:57:57.987Z,19.90
2018-04-29T19:02:00.521Z,19.90
2018-04-29T19:06:03.818Z,19.70
2018-04-29T19:10:06.347Z,19.70
2018-04-29T19:14:08.937Z,19.60
2018-04-29T19:18:11.407Z,19.60
2018-04-29T19:22:13.940Z,19.50
2018-04-29T19:26:16.470Z,19.40
2018-04-29T19:30:18.999Z,19.30
2018-04-29T19:34:21.527Z,19.30
2018-04-29T19:38:24.044Z,19.20
2018-04-29T19:42:26.583Z,19.10
2018-04-29T19:46:30.758Z,18.90
2018-04-29T19:50:33.280Z,18.90
2018-04-29T19:54:36.580Z,18.80
2018-04-29T19:58:39.859Z,18.70
2018-04-29T20:02:43.249Z,18.60
2018-04-29T20:06:47.461Z,18.60
2018-04-29T20:10:49.995Z,18.50
2018-04-29T20:14:53.292Z,18.40
2018-04-29T20:18:55.807Z,18.30
2018-04-29T20:22:58.334Z,18.30
2018-04-29T20:27:00.867Z,18.30
2018-04-29T20:31:04.166Z,18.10
2018-04-29T20:35:07.455Z,18.10
2018-04-29T20:39:10.741Z,18.00
2018-04-29T20:43:13.266Z,18.00
2018-04-29T20:47:15.804Z,18.00
2018-04-29T20:51:18.336Z,18.00
2018-04-29T20:55:20.927Z,17.90
2018-04-29T20:59:24.174Z,17.80
2018-04-29T21:03:26.709Z,17.80
2018-04-29T21:07:29.242Z,17.80
2018-04-29T21:11:31.767Z,17.70
2018-04-29T21:15:35.097Z,17.70
2018-04-29T21:19:37.643Z,17.60
2018-04-29T21:23:40.915Z,17.60
2018-04-29T21:27:43.446Z,17.50
2018-04-29T21:31:45.976Z,17.50
2018-04-29T21:35:48.508Z,17.50
2018-04-29T21:39:51.802Z,17.40
2018-04-29T21:43:55.091Z,17.40
2018-04-29T21:47:57.622Z,17.40
2018-04-29T21:52:00.922Z,17.30
2018-04-29T21:56:03.458Z,17.30
2018-04-29T22:00:06.039Z,17.30
2018-04-29T22:04:08.551Z,17.20
2018-04-29T22:08:12.475Z,17.20
2018-04-29T22:12:15.864Z,17.20
2018-04-29T22:16:19.298Z,17.10
2018-04-29T22:20:21.823Z,17.10
2018-04-29T22:24:24.339Z,17.10
2018-04-29T22:28:27.638Z,17.00
2018-04-29T22:32:30.214Z,17.00
2018-04-29T22:36:32.989Z,17.00
2018-04-29T22:40:35.864Z,17.00
2018-04-29T22:44:38.374Z,17.00
2018-04-29T22:48:41.738Z,16.90
2018-04-29T22:52:44.258Z,17.00
2018-04-29T22:56:46.788Z,16.90
2018-04-29T23:00:49.319Z,16.90
2018-04-29T23:04:51.832Z,16.90
2018-04-29T23:08:54.367Z,16.90
2018-04-29T23:12:56.890Z,16.90
2018-04-29T23:16:59.421Z,16.90
2018-04-29T23:21:01.945Z,16.90
2018-04-29T23:25:04.455Z,16.90
2018-04-29T23:29:08.157Z,16.80
2018-04-29T23:33:10.772Z,16.80
2018-04-29T23:37:14.675Z,16.80
2018-04-29T23:41:17.208Z,16.70
2018-04-29T23:45:19.736Z,16.80
2018-04-29T23:49:22.360Z,16.70
2018-04-29T23:53:24.879Z,16.70
2018-04-29T23:57:27.407Z,16.70
